Time;durP1;ratioP1;P1;durP2;ratioP2;P2;SDS_P1;SDS_P2;PMS_P1;PMS_P2;Temp;Humidity;BMP_temperature;BMP_pressure;BME280_temperature;BME280_humidity;BME280_pressure;Samples;Min_cycle;Max_cycle;Signal;HPM_P1;HPM_P2
2023/12/03 00:01:23;;;;;;;6.38;2.85;;;;;;;;;;6197537;28;20067;-73
2023/12/03 00:04:26;;;;;;;8.50;2.25;;;;;;;;;;6225382;28;20672;-74
2023/12/03 00:07:28;;;;;;;9.43;1.95;;;;;;;;;;6214793;28;20530;-73
2023/12/03 00:10:31;;;;;;;11.02;2.17;;;;;;;;;;6227094;28;20049;-73
2023/12/03 00:13:35;;;;;;;9.82;2.10;;;;;;;;;;6234352;28;20056;-73
2023/12/03 00:16:38;;;;;;;4.80;2.22;;;;;;;;;;6229597;28;20048;-74
2023/12/03 00:19:40;;;;;;;9.32;2.55;;;;;;;;;;6233360;28;20689;-73
2023/12/03 00:22:43;;;;;;;6.63;1.80;;;;;;;;;;6229216;28;20056;-74
2023/12/03 00:25:45;;;;;;;10.80;2.67;;;;;;;;;;6190845;28;20050;-74
2023/12/03 00:28:47;;;;;;;7.10;1.85;;;;;;;;;;6218682;28;20517;-73
2023/12/03 00:31:49;;;;;;;9.52;2.08;;;;;;;;;;6213967;28;20045;-73
2023/12/03 00:34:51;;;;;;;9.93;2.17;;;;;;;;;;6237279;28;20045;-74
2023/12/03 00:37:53;;;;;;;8.13;2.20;;;;;;;;;;6232446;28;20042;-74
2023/12/03 00:40:55;;;;;;;8.82;2.40;;;;;;;;;;6218831;28;20057;-73
2023/12/03 00:43:58;;;;;;;9.68;1.55;;;;;;;;;;6238824;28;20033;-73
2023/12/03 00:47:00;;;;;;;13.35;1.92;;;;;;;;;;6213635;28;20443;-73
2023/12/03 00:50:03;;;;;;;7.78;2.13;;;;;;;;;;6208476;28;20550;-73
2023/12/03 00:53:06;;;;;;;9.77;1.73;;;;;;;;;;6222566;28;20050;-73
2023/12/03 00:56:10;;;;;;;10.05;1.95;;;;;;;;;;6217797;28;20045;-73
2023/12/03 00:59:12;;;;;;;5.20;1.27;;;;;;;;;;6229342;28;20122;-73
2023/12/03 01:02:14;;;;;;;11.38;1.75;;;;;;;;;;6198221;28;20103;-73
2023/12/03 01:05:17;;;;;;;9.93;3.05;;;;;;;;;;6226418;28;20045;-73
2023/12/03 01:08:19;;;;;;;8.43;2.08;;;;;;;;;;6240280;28;20053;-73
2023/12/03 01:11:22;;;;;;;7.47;1.85;;;;;;;;;;6206842;28;20044;-73
2023/12/03 01:14:37;;;;;;;12.50;3.13;;;;;;;;;;6205085;28;20042;-73
2023/12/03 01:17:40;;;;;;;8.02;2.05;;;;;;;;;;6214205;28;20050;-73
2023/12/03 01:20:42;;;;;;;13.50;1.80;;;;;;;;;;6218728;28;20530;-73
2023/12/03 01:23:45;;;;;;;9.43;1.90;;;;;;;;;;6199513;28;20057;-73
2023/12/03 01:26:47;;;;;;;9.60;2.70;;;;;;;;;;6223635;28;20033;-73
2023/12/03 01:29:49;;;;;;;8.80;2.45;;;;;;;;;;6191483;28;20199;-73
2023/12/03 01:32:52;;;;;;;14.32;3.33;;;;;;;;;;6228400;28;20041;-73
2023/12/03 01:35:55;;;;;;;22.58;7.53;;;;;;;;;;6220080;28;20522;-73
2023/12/03 01:38:58;;;;;;;20.83;8.15;;;;;;;;;;6224217;28;20523;-73
2023/12/03 01:42:00;;;;;;;17.25;3.53;;;;;;;;;;6224540;28;20065;-73
2023/12/03 01:45:03;;;;;;;15.90;3.38;;;;;;;;;;6205692;28;20041;-73
2023/12/03 01:48:06;;;;;;;16.45;3.60;;;;;;;;;;6231507;28;20045;-73
2023/12/03 01:51:09;;;;;;;12.68;2.85;;;;;;;;;;6211967;28;20110;-73
2023/12/03 01:54:11;;;;;;;13.85;3.50;;;;;;;;;;6212003;28;20045;-71
2023/12/03 01:57:14;;;;;;;18.48;3.53;;;;;;;;;;6210189;28;20052;-73
2023/12/03 02:00:17;;;;;;;14.48;3.47;;;;;;;;;;6227968;28;20757;-73
2023/12/03 02:03:20;;;;;;;10.68;3.15;;;;;;;;;;6219783;28;20129;-73
2023/12/03 02:06:22;;;;;;;12.93;3.47;;;;;;;;;;6215444;28;20427;-73
2023/12/03 02:09:24;;;;;;;9.95;2.50;;;;;;;;;;6234040;28;20045;-73
2023/12/03 02:12:27;;;;;;;9.77;2.53;;;;;;;;;;6206106;28;20048;-73
2023/12/03 02:15:29;;;;;;;16.55;3.05;;;;;;;;;;6197592;28;20450;-73
2023/12/03 02:18:33;;;;;;;16.92;2.65;;;;;;;;;;6218264;28;20050;-73
2023/12/03 02:21:35;;;;;;;13.57;2.92;;;;;;;;;;6224499;28;20069;-72
2023/12/03 02:24:38;;;;;;;9.95;2.38;;;;;;;;;;6196222;28;20049;-73
2023/12/03 02:27:40;;;;;;;16.25;3.28;;;;;;;;;;6227030;28;20053;-73
2023/12/03 02:30:42;;;;;;;11.60;2.45;;;;;;;;;;6208264;28;20145;-73
2023/12/03 02:33:53;;;;;;;11.68;2.67;;;;;;;;;;6220594;28;20088;-73
2023/12/03 02:36:56;;;;;;;17.30;2.60;;;;;;;;;;6221353;28;20042;-72
2023/12/03 02:39:58;;;;;;;14.32;2.28;;;;;;;;;;6217903;28;20129;-72
2023/12/03 02:43:00;;;;;;;16.23;2.55;;;;;;;;;;6211803;28;20053;-73
2023/12/03 02:46:03;;;;;;;10.23;3.08;;;;;;;;;;6210606;28;20053;-72
2023/12/03 02:49:06;;;;;;;11.57;3.22;;;;;;;;;;6228088;28;20038;-73
2023/12/03 02:52:09;;;;;;;10.68;2.30;;;;;;;;;;6220826;28;20053;-72
2023/12/03 02:55:11;;;;;;;12.27;2.33;;;;;;;;;;6217424;28;20037;-73
2023/12/03 02:58:13;;;;;;;9.60;2.30;;;;;;;;;;6227047;28;20091;-73
2023/12/03 03:01:16;;;;;;;17.80;2.72;;;;;;;;;;6217530;28;20053;-72
2023/12/03 03:04:17;;;;;;;19.23;2.92;;;;;;;;;;6211622;28;20038;-73
2023/12/03 03:07:20;;;;;;;8.38;2.20;;;;;;;;;;6223009;28;20149;-73
2023/12/03 03:10:23;;;;;;;9.45;3.40;;;;;;;;;;6208235;28;20049;-73
2023/12/03 03:13:26;;;;;;;9.75;2.95;;;;;;;;;;6211670;28;20053;-73
2023/12/03 03:16:28;;;;;;;12.50;2.70;;;;;;;;;;6231718;28;20038;-73
2023/12/03 03:19:30;;;;;;;13.70;2.70;;;;;;;;;;6209398;28;20081;-73
2023/12/03 03:22:33;;;;;;;11.90;2.05;;;;;;;;;;6221881;28;20545;-73
2023/12/03 03:25:36;;;;;;;6.43;1.80;;;;;;;;;;6240595;28;20049;-72
2023/12/03 03:28:38;;;;;;;11.23;2.42;;;;;;;;;;6228663;28;20050;-73
2023/12/03 03:31:40;;;;;;;17.45;2.38;;;;;;;;;;6204748;28;20442;-73
2023/12/03 03:34:43;;;;;;;9.18;2.00;;;;;;;;;;6231289;28;20034;-73
2023/12/03 03:37:47;;;;;;;12.98;3.58;;;;;;;;;;6223111;28;20238;-73
2023/12/03 03:40:49;;;;;;;12.40;2.92;;;;;;;;;;6242591;28;20041;-76
2023/12/03 03:43:51;;;;;;;15.13;2.40;;;;;;;;;;6242552;28;20045;-74
2023/12/03 03:46:53;;;;;;;11.73;2.13;;;;;;;;;;6217270;28;20056;-74
2023/12/03 03:49:55;;;;;;;10.85;2.15;;;;;;;;;;6211508;28;20054;-73
2023/12/03 03:52:57;;;;;;;9.88;2.95;;;;;;;;;;6224258;28;20108;-74
2023/12/03 03:56:07;;;;;;;10.98;2.60;;;;;;;;;;6204924;28;20050;-73
2023/12/03 03:59:09;;;;;;;14.15;3.15;;;;;;;;;;6205673;28;20041;-73
2023/12/03 04:02:12;;;;;;;11.82;2.17;;;;;;;;;;6230864;28;20052;-74
2023/12/03 04:05:14;;;;;;;7.47;2.47;;;;;;;;;;6231815;28;20759;-75
2023/12/03 04:08:16;;;;;;;7.90;2.60;;;;;;;;;;6235353;28;20053;-74
2023/12/03 04:11:19;;;;;;;11.48;1.80;;;;;;;;;;6225976;28;20052;-76
2023/12/03 04:14:23;;;;;;;13.05;2.50;;;;;;;;;;6208330;28;20135;-75
2023/12/03 04:17:25;;;;;;;13.50;3.38;;;;;;;;;;6198886;28;20050;-74
2023/12/03 04:20:30;;;;;;;13.85;3.92;;;;;;;;;;6221898;28;20148;-75
2023/12/03 04:23:32;;;;;;;10.68;2.75;;;;;;;;;;6228740;28;20052;-73
2023/12/03 04:26:35;;;;;;;10.98;2.83;;;;;;;;;;6213924;28;20048;-74
2023/12/03 04:29:38;;;;;;;12.68;3.53;;;;;;;;;;6215864;28;20045;-74
2023/12/03 04:32:40;;;;;;;8.02;3.10;;;;;;;;;;6229991;28;20140;-74
2023/12/03 04:35:44;;;;;;;14.70;4.35;;;;;;;;;;6197731;28;20747;-74
2023/12/03 04:38:46;;;;;;;12.57;2.28;;;;;;;;;;6188999;28;20486;-74
2023/12/03 04:41:50;;;;;;;10.80;2.78;;;;;;;;;;6223215;28;20041;-74
2023/12/03 04:44:52;;;;;;;11.02;2.05;;;;;;;;;;6218058;28;20096;-75
2023/12/03 04:47:54;;;;;;;11.02;2.70;;;;;;;;;;6210620;28;20048;-74
2023/12/03 04:50:57;;;;;;;17.17;3.95;;;;;;;;;;6228024;28;20174;-74
2023/12/03 04:54:00;;;;;;;14.75;2.97;;;;;;;;;;6211396;28;20051;-73
2023/12/03 04:57:03;;;;;;;13.77;3.00;;;;;;;;;;6216963;28;20063;-73
2023/12/03 05:00:07;;;;;;;23.83;7.95;;;;;;;;;;6209250;28;20053;-74
2023/12/03 05:03:09;;;;;;;12.43;2.80;;;;;;;;;;6205181;28;20055;-74
2023/12/03 05:06:12;;;;;;;20.42;5.45;;;;;;;;;;6225416;28;20045;-73
2023/12/03 05:09:15;;;;;;;16.63;3.17;;;;;;;;;;6210530;28;20073;-73
2023/12/03 05:12:17;;;;;;;23.60;7.00;;;;;;;;;;6224837;28;20089;-73
2023/12/03 05:15:19;;;;;;;17.50;2.88;;;;;;;;;;6209908;28;20033;-73
2023/12/03 05:18:21;;;;;;;14.82;3.45;;;;;;;;;;6228101;28;20045;-73
2023/12/03 05:21:24;;;;;;;12.25;3.45;;;;;;;;;;6212076;28;20037;-73
2023/12/03 05:24:26;;;;;;;11.32;3.60;;;;;;;;;;6216534;28;20048;-74
2023/12/03 05:27:28;;;;;;;15.60;3.20;;;;;;;;;;6223359;28;20076;-74
2023/12/03 05:30:30;;;;;;;11.48;3.92;;;;;;;;;;6213341;28;20140;-73
2023/12/03 05:33:33;;;;;;;15.73;4.70;;;;;;;;;;6218906;28;20045;-74
2023/12/03 05:36:35;;;;;;;13.80;4.35;;;;;;;;;;6213494;28;20049;-75
2023/12/03 05:39:37;;;;;;;12.70;2.45;;;;;;;;;;6221746;28;20623;-74
2023/12/03 05:42:40;;;;;;;8.85;2.15;;;;;;;;;;6228460;28;20440;-75
2023/12/03 05:45:45;;;;;;;17.60;3.42;;;;;;;;;;6231438;28;20069;-74
2023/12/03 05:48:48;;;;;;;12.48;2.95;;;;;;;;;;6229081;28;20126;-74
2023/12/03 05:51:50;;;;;;;11.18;2.25;;;;;;;;;;6212333;28;20049;-73
2023/12/03 05:54:52;;;;;;;7.47;2.42;;;;;;;;;;6217657;28;20042;-74
2023/12/03 05:57:55;;;;;;;12.23;2.78;;;;;;;;;;6221113;28;20053;-73
2023/12/03 06:00:57;;;;;;;9.05;2.58;;;;;;;;;;6195442;28;20592;-74
2023/12/03 06:04:06;;;;;;;12.52;2.08;;;;;;;;;;6231168;28;20041;-74
2023/12/03 06:07:09;;;;;;;7.88;3.80;;;;;;;;;;6203391;28;20061;-73
2023/12/03 06:10:11;;;;;;;10.60;3.20;;;;;;;;;;6225151;28;20090;-75
2023/12/03 06:13:13;;;;;;;10.20;2.60;;;;;;;;;;6223685;28;20056;-73
2023/12/03 06:16:16;;;;;;;8.40;3.28;;;;;;;;;;6223091;28;20541;-73
2023/12/03 06:19:21;;;;;;;23.95;9.15;;;;;;;;;;6214230;28;20044;-73
2023/12/03 06:22:24;;;;;;;14.30;4.40;;;;;;;;;;6185210;28;20204;-73
2023/12/03 06:25:26;;;;;;;23.55;9.15;;;;;;;;;;6210268;28;20124;-74
2023/12/03 06:28:28;;;;;;;22.58;7.28;;;;;;;;;;6201776;28;20103;-73
2023/12/03 06:31:33;;;;;;;8.63;4.00;;;;;;;;;;6221907;28;20088;-73
2023/12/03 06:34:35;;;;;;;8.18;2.35;;;;;;;;;;6206517;28;20058;-73
2023/12/03 06:37:37;;;;;;;11.98;3.40;;;;;;;;;;6210687;28;20060;-73
2023/12/03 06:40:40;;;;;;;15.35;5.68;;;;;;;;;;6209834;28;20042;-74
2023/12/03 06:43:42;;;;;;;12.18;5.38;;;;;;;;;;6237872;28;20046;-74
2023/12/03 06:46:45;;;;;;;11.50;5.85;;;;;;;;;;6218034;28;20058;-74
2023/12/03 06:49:48;;;;;;;11.20;4.32;;;;;;;;;;6251733;28;20045;-74
2023/12/03 06:52:50;;;;;;;10.48;3.10;;;;;;;;;;6261263;28;20057;-74
2023/12/03 06:55:52;;;;;;;14.43;4.40;;;;;;;;;;6229330;28;20328;-76
2023/12/03 06:58:55;;;;;;;16.30;4.90;;;;;;;;;;6230185;28;20449;-75
2023/12/03 07:01:59;;;;;;;15.98;3.60;;;;;;;;;;6211011;28;20443;-76
2023/12/03 07:05:01;;;;;;;16.45;6.05;;;;;;;;;;6212688;28;20069;-75
2023/12/03 07:08:04;;;;;;;12.27;4.28;;;;;;;;;;6212955;28;20045;-76
2023/12/03 07:11:08;;;;;;;16.83;6.75;;;;;;;;;;6204360;28;20081;-75
2023/12/03 07:14:10;;;;;;;61.40;37.08;;;;;;;;;;6229668;28;20068;-76
2023/12/03 07:17:13;;;;;;;48.00;26.75;;;;;;;;;;6223902;28;20111;-75
2023/12/03 07:20:18;;;;;;;42.22;22.08;;;;;;;;;;6236942;28;20050;-75
2023/12/03 07:23:20;;;;;;;40.53;19.40;;;;;;;;;;6218493;28;20049;-74
2023/12/03 07:26:22;;;;;;;21.35;10.43;;;;;;;;;;6209088;28;20045;-74
2023/12/03 07:29:25;;;;;;;25.85;10.73;;;;;;;;;;6212009;28;20143;-74
2023/12/03 07:32:27;;;;;;;18.30;6.97;;;;;;;;;;6212847;28;20868;-75
2023/12/03 07:35:29;;;;;;;16.83;9.35;;;;;;;;;;6226918;28;20041;-73
2023/12/03 07:38:31;;;;;;;15.40;7.25;;;;;;;;;;6229610;28;20884;-74
2023/12/03 07:41:34;;;;;;;12.68;4.53;;;;;;;;;;6214386;28;20555;-74
2023/12/03 07:44:36;;;;;;;13.73;8.93;;;;;;;;;;6200660;28;20080;-74
2023/12/03 07:47:38;;;;;;;11.80;6.55;;;;;;;;;;6213252;28;20215;-74
2023/12/03 07:50:40;;;;;;;17.45;8.32;;;;;;;;;;6212859;28;20057;-74
2023/12/03 07:53:43;;;;;;;20.90;7.05;;;;;;;;;;6227981;28;20049;-73
2023/12/03 07:56:45;;;;;;;14.20;6.70;;;;;;;;;;6230244;28;20124;-74
2023/12/03 07:59:49;;;;;;;23.42;6.78;;;;;;;;;;6225723;28;20046;-73
2023/12/03 08:02:53;;;;;;;14.68;5.55;;;;;;;;;;6229983;28;20057;-74
2023/12/03 08:05:55;;;;;;;21.88;8.95;;;;;;;;;;6214907;28;20049;-75
2023/12/03 08:09:00;;;;;;;15.02;8.45;;;;;;;;;;6230791;28;20047;-73
2023/12/03 08:12:02;;;;;;;18.02;7.80;;;;;;;;;;6173911;28;20606;-74
2023/12/03 08:15:06;;;;;;;20.67;12.77;;;;;;;;;;6221112;28;20049;-73
2023/12/03 08:18:09;;;;;;;16.75;8.98;;;;;;;;;;6223690;28;20037;-74
2023/12/03 08:21:11;;;;;;;10.90;7.47;;;;;;;;;;6233899;28;20051;-73
2023/12/03 08:24:14;;;;;;;32.25;17.92;;;;;;;;;;6217634;28;20326;-75
2023/12/03 08:27:17;;;;;;;17.88;10.13;;;;;;;;;;6210986;28;20548;-73
2023/12/03 08:30:20;;;;;;;16.95;8.38;;;;;;;;;;6229189;28;20621;-72
2023/12/03 08:33:22;;;;;;;20.30;11.95;;;;;;;;;;6218785;28;20530;-73
2023/12/03 08:36:30;;;;;;;21.48;13.55;;;;;;;;;;6233380;28;20127;-74
2023/12/03 08:39:32;;;;;;;20.92;10.52;;;;;;;;;;6225272;28;20045;-74
2023/12/03 08:42:34;;;;;;;28.65;16.08;;;;;;;;;;6225205;28;20046;-74
2023/12/03 08:45:36;;;;;;;23.52;13.30;;;;;;;;;;6226933;28;20034;-74
2023/12/03 08:48:39;;;;;;;22.80;12.70;;;;;;;;;;6226807;28;20046;-74
2023/12/03 08:51:42;;;;;;;34.65;20.27;;;;;;;;;;6230582;28;20522;-75
2023/12/03 08:54:45;;;;;;;36.88;22.15;;;;;;;;;;6206171;28;20475;-74
2023/12/03 08:57:48;;;;;;;53.53;28.60;;;;;;;;;;6230307;28;20045;-73
2023/12/03 09:00:51;;;;;;;30.45;16.73;;;;;;;;;;6240984;28;20065;-74
2023/12/03 09:03:53;;;;;;;23.98;16.48;;;;;;;;;;6215230;28;20231;-73
2023/12/03 09:06:56;;;;;;;18.92;11.57;;;;;;;;;;6228936;28;20060;-73
2023/12/03 09:09:58;;;;;;;19.65;12.27;;;;;;;;;;6239463;28;20048;-74
2023/12/03 09:13:00;;;;;;;22.92;15.25;;;;;;;;;;6226185;28;20791;-75
2023/12/03 09:16:04;;;;;;;28.08;16.60;;;;;;;;;;6221053;28;20102;-75
2023/12/03 09:19:06;;;;;;;24.75;15.45;;;;;;;;;;6230795;28;20048;-75
2023/12/03 09:22:08;;;;;;;23.80;16.55;;;;;;;;;;6219647;28;20580;-75
2023/12/03 09:25:12;;;;;;;28.45;16.88;;;;;;;;;;6219855;28;20046;-74
2023/12/03 09:28:14;;;;;;;22.67;14.07;;;;;;;;;;6211747;28;20107;-75
2023/12/03 09:31:16;;;;;;;29.50;18.60;;;;;;;;;;6223996;28;20041;-74
2023/12/03 09:34:18;;;;;;;22.08;14.98;;;;;;;;;;6235489;28;20630;-73
2023/12/03 09:37:21;;;;;;;24.35;14.43;;;;;;;;;;6201407;28;20034;-74
2023/12/03 09:40:25;;;;;;;24.30;18.13;;;;;;;;;;6194748;28;20053;-74
2023/12/03 09:43:29;;;;;;;24.83;15.23;;;;;;;;;;6216357;28;20349;-75
2023/12/03 09:46:36;;;;;;;25.65;15.32;;;;;;;;;;6199604;28;20519;-74
2023/12/03 09:49:38;;;;;;;19.67;13.07;;;;;;;;;;6218118;28;20105;-74
2023/12/03 09:52:42;;;;;;;25.10;15.55;;;;;;;;;;6232338;28;20076;-74
2023/12/03 09:55:44;;;;;;;21.10;13.77;;;;;;;;;;6208372;28;20072;-74
2023/12/03 09:58:47;;;;;;;21.23;13.63;;;;;;;;;;6224545;28;20087;-74
2023/12/03 10:01:50;;;;;;;25.27;15.30;;;;;;;;;;6235808;28;20052;-74
2023/12/03 10:04:53;;;;;;;22.17;14.27;;;;;;;;;;6206526;28;20143;-73
2023/12/03 10:07:55;;;;;;;25.08;13.63;;;;;;;;;;6235473;28;20041;-73
2023/12/03 10:11:03;;;;;;;16.88;11.63;;;;;;;;;;6196049;28;20060;-74
2023/12/03 10:14:10;;;;;;;22.00;14.38;;;;;;;;;;6195141;28;20774;-74
2023/12/03 10:17:19;;;;;;;25.48;15.68;;;;;;;;;;6237179;28;20079;-74
2023/12/03 10:20:24;;;;;;;16.33;10.68;;;;;;;;;;6217245;28;20983;-74
2023/12/03 10:23:28;;;;;;;;;;;;;;;;;;6238030;28;20041;-74
2023/12/03 10:26:30;;;;;;;18.75;12.45;;;;;;;;;;6232790;28;19925;-74
2023/12/03 10:29:33;;;;;;;22.23;12.18;;;;;;;;;;6215267;28;20045;-75
2023/12/03 10:32:35;;;;;;;24.10;16.35;;;;;;;;;;6240190;28;20120;-74
2023/12/03 10:35:38;;;;;;;18.55;10.52;;;;;;;;;;6224802;28;20045;-74
2023/12/03 10:38:42;;;;;;;20.25;11.68;;;;;;;;;;6233006;28;20427;-74
2023/12/03 10:41:49;;;;;;;21.02;12.98;;;;;;;;;;6218263;28;20053;-75
2023/12/03 10:44:51;;;;;;;15.70;10.00;;;;;;;;;;6235734;28;20574;-75
2023/12/03 10:48:00;;;;;;;20.30;11.10;;;;;;;;;;6219524;28;20046;-74
2023/12/03 10:51:08;;;;;;;15.60;8.63;;;;;;;;;;6211367;28;20056;-74
2023/12/03 10:54:12;;;;;;;21.88;13.65;;;;;;;;;;6203749;28;20072;-73
2023/12/03 10:57:15;;;;;;;15.20;10.45;;;;;;;;;;6230335;28;20038;-76
2023/12/03 11:00:19;;;;;;;17.80;12.30;;;;;;;;;;6204685;28;20126;-75
2023/12/03 11:03:35;;;;;;;16.45;9.73;;;;;;;;;;6200250;28;20048;-74
2023/12/03 11:06:37;;;;;;;20.92;12.75;;;;;;;;;;6200643;28;20811;-74
2023/12/03 11:09:40;;;;;;;20.90;12.25;;;;;;;;;;6225909;28;20041;-74
2023/12/03 11:12:51;;;;;;;21.30;13.68;;;;;;;;;;6210993;28;20443;-74
2023/12/03 11:15:54;;;;;;;29.85;14.35;;;;;;;;;;6222312;28;20053;-79
2023/12/03 11:19:13;;;;;;;18.95;13.27;;;;;;;;;;6217988;28;20518;-74
2023/12/03 11:22:24;;;;;;;24.02;13.68;;;;;;;;;;6213383;28;20049;-75
2023/12/03 11:25:33;;;;;;;26.50;17.20;;;;;;;;;;6227864;28;20131;-75
2023/12/03 11:28:35;;;;;;;30.15;16.65;;;;;;;;;;6233604;28;20052;-75
2023/12/03 11:31:37;;;;;;;14.10;10.40;;;;;;;;;;6210835;28;20057;-74
2023/12/03 11:34:40;;;;;;;16.85;10.20;;;;;;;;;;6212853;28;20438;-74
2023/12/03 11:37:43;;;;;;;16.58;9.93;;;;;;;;;;6198276;28;20050;-74
2023/12/03 11:40:45;;;;;;;18.08;11.05;;;;;;;;;;6209721;28;20065;-74
2023/12/03 11:43:47;;;;;;;16.60;11.75;;;;;;;;;;6201038;28;20459;-74
2023/12/03 11:47:05;;;;;;;26.42;17.10;;;;;;;;;;6220409;28;20128;-74
2023/12/03 11:50:08;;;;;;;11.90;8.32;;;;;;;;;;6231062;28;20072;-75
2023/12/03 11:53:13;;;;;;;19.73;14.43;;;;;;;;;;6204292;28;20191;-79
2023/12/03 11:56:16;;;;;;;21.45;13.23;;;;;;;;;;6225959;28;20045;-74
2023/12/03 11:59:18;;;;;;;18.85;12.45;;;;;;;;;;6214629;28;20089;-75
2023/12/03 12:02:21;;;;;;;15.98;10.90;;;;;;;;;;6228364;28;20488;-74
2023/12/03 12:05:24;;;;;;;20.13;13.90;;;;;;;;;;6228030;28;20111;-75
2023/12/03 12:08:29;;;;;;;24.45;16.40;;;;;;;;;;6202741;28;20045;-75
2023/12/03 12:11:33;;;;;;;13.68;9.52;;;;;;;;;;6225556;28;20049;-75
2023/12/03 12:14:35;;;;;;;18.77;13.75;;;;;;;;;;6213035;28;20128;-75
2023/12/03 12:17:37;;;;;;;20.13;12.65;;;;;;;;;;6214833;28;20073;-74
2023/12/03 12:20:40;;;;;;;25.45;16.23;;;;;;;;;;6211658;28;20061;-75
2023/12/03 12:23:46;;;;;;;19.10;11.80;;;;;;;;;;6215658;28;20809;-75
2023/12/03 12:26:49;;;;;;;15.02;10.40;;;;;;;;;;6214182;28;20068;-75
2023/12/03 12:29:51;;;;;;;17.35;11.15;;;;;;;;;;6210694;28;20053;-75
2023/12/03 12:32:55;;;;;;;16.42;11.55;;;;;;;;;;6217347;28;20123;-74
2023/12/03 12:36:01;;;;;;;16.17;11.77;;;;;;;;;;6217234;28;20434;-75
2023/12/03 12:39:04;;;;;;;17.02;10.25;;;;;;;;;;6237154;28;20108;-75
2023/12/03 12:42:07;;;;;;;14.75;9.18;;;;;;;;;;6228897;28;20046;-74
2023/12/03 12:45:28;;;;;;;14.80;9.43;;;;;;;;;;6233727;28;20087;-75
2023/12/03 12:48:33;;;;;;;17.98;12.27;;;;;;;;;;6219051;28;20060;-75
2023/12/03 12:51:35;;;;;;;16.52;9.95;;;;;;;;;;6213987;28;20068;-74
2023/12/03 12:54:45;;;;;;;20.98;14.90;;;;;;;;;;6203593;28;20060;-74
2023/12/03 12:57:47;;;;;;;19.90;11.07;;;;;;;;;;6214894;28;20077;-74
2023/12/03 13:00:50;;;;;;;15.45;10.63;;;;;;;;;;6234199;28;20098;-74
2023/12/03 13:03:52;;;;;;;16.10;9.25;;;;;;;;;;6204171;28;20450;-74
2023/12/03 13:06:54;;;;;;;21.23;11.10;;;;;;;;;;6215723;28;20084;-74
2023/12/03 13:09:56;;;;;;;17.02;10.95;;;;;;;;;;6231624;28;20049;-74
2023/12/03 13:13:00;;;;;;;17.33;10.85;;;;;;;;;;6225520;28;20060;-73
2023/12/03 13:16:02;;;;;;;15.00;8.80;;;;;;;;;;6213653;28;20124;-75
2023/12/03 13:19:05;;;;;;;22.60;11.82;;;;;;;;;;6228089;28;20041;-76
2023/12/03 13:22:07;;;;;;;21.10;12.73;;;;;;;;;;6222655;28;20045;-76
2023/12/03 13:25:10;;;;;;;16.58;9.40;;;;;;;;;;6212238;28;20038;-74
2023/12/03 13:28:13;;;;;;;16.55;10.40;;;;;;;;;;6186166;28;20041;-75
2023/12/03 13:31:15;;;;;;;23.25;13.23;;;;;;;;;;6222841;28;20046;-75
2023/12/03 13:34:18;;;;;;;22.95;15.10;;;;;;;;;;6220373;28;20495;-75
2023/12/03 13:37:20;;;;;;;18.60;9.70;;;;;;;;;;6220140;28;20037;-75
2023/12/03 13:40:23;;;;;;;16.98;12.02;;;;;;;;;;6209379;28;20049;-76
2023/12/03 13:43:28;;;;;;;19.35;11.05;;;;;;;;;;6221218;28;20053;-76
2023/12/03 13:46:30;;;;;;;15.40;9.88;;;;;;;;;;6233548;28;20703;-77
2023/12/03 13:49:32;;;;;;;18.17;9.75;;;;;;;;;;6182969;28;20053;-75
2023/12/03 13:52:34;;;;;;;20.10;11.57;;;;;;;;;;6220345;28;20081;-75
2023/12/03 13:55:37;;;;;;;16.13;10.80;;;;;;;;;;6220555;28;20079;-74
2023/12/03 13:58:39;;;;;;;16.83;10.73;;;;;;;;;;6217630;28;20042;-74
2023/12/03 14:01:43;;;;;;;21.63;13.60;;;;;;;;;;6232161;28;20065;-75
2023/12/03 14:04:45;;;;;;;14.75;9.55;;;;;;;;;;6228913;28;20052;-75
2023/12/03 14:07:48;;;;;;;18.45;12.35;;;;;;;;;;6235101;28;20069;-75
2023/12/03 14:10:50;;;;;;;12.93;8.93;;;;;;;;;;6224958;28;20041;-75
2023/12/03 14:13:53;;;;;;;20.17;12.27;;;;;;;;;;6224461;28;20076;-75
2023/12/03 14:16:58;;;;;;;20.60;14.10;;;;;;;;;;6230697;28;20045;-75
2023/12/03 14:20:00;;;;;;;17.10;12.18;;;;;;;;;;6217543;28;20094;-74
2023/12/03 14:23:02;;;;;;;17.00;10.60;;;;;;;;;;6194920;28;20253;-74
2023/12/03 14:26:06;;;;;;;17.80;11.05;;;;;;;;;;6228691;28;20064;-80
2023/12/03 14:29:09;;;;;;;19.45;11.70;;;;;;;;;;6217921;28;20048;-73
2023/12/03 14:32:11;;;;;;;17.23;10.73;;;;;;;;;;6217732;28;20041;-74
2023/12/03 14:35:15;;;;;;;15.93;10.20;;;;;;;;;;6216917;28;20127;-74
2023/12/03 14:38:18;;;;;;;16.73;10.38;;;;;;;;;;6231922;28;20103;-74
2023/12/03 14:41:21;;;;;;;16.02;9.95;;;;;;;;;;6228744;28;20061;-73
2023/12/03 14:44:24;;;;;;;22.50;14.27;;;;;;;;;;6212943;28;20049;-74
2023/12/03 14:47:28;;;;;;;14.18;10.35;;;;;;;;;;6213905;28;20037;-73
2023/12/03 14:50:30;;;;;;;12.70;10.05;;;;;;;;;;6223285;28;20053;-74
2023/12/03 14:53:32;;;;;;;13.90;8.50;;;;;;;;;;6230928;28;20081;-73
2023/12/03 14:56:35;;;;;;;17.70;9.55;;;;;;;;;;6217657;28;20563;-74
2023/12/03 14:59:38;;;;;;;18.90;10.90;;;;;;;;;;6225104;28;20541;-74
2023/12/03 15:02:40;;;;;;;19.70;14.57;;;;;;;;;;6232220;28;20107;-73
2023/12/03 15:05:42;;;;;;;17.70;12.27;;;;;;;;;;6215802;28;20574;-74
2023/12/03 15:08:45;;;;;;;18.30;11.30;;;;;;;;;;6199385;28;20068;-74
2023/12/03 15:11:48;;;;;;;16.38;11.38;;;;;;;;;;6233008;28;20064;-75
2023/12/03 15:14:50;;;;;;;16.10;11.55;;;;;;;;;;6229732;28;20056;-75
2023/12/03 15:17:53;;;;;;;11.82;9.38;;;;;;;;;;6216304;28;20107;-75
2023/12/03 15:20:56;;;;;;;14.50;9.60;;;;;;;;;;6235558;28;20052;-74
2023/12/03 15:23:58;;;;;;;17.95;13.20;;;;;;;;;;6223216;28;20053;-74
2023/12/03 15:27:00;;;;;;;16.45;11.73;;;;;;;;;;6236232;28;20048;-74
2023/12/03 15:30:02;;;;;;;16.63;9.75;;;;;;;;;;6225029;28;20055;-74
2023/12/03 15:33:05;;;;;;;19.83;11.27;;;;;;;;;;6236050;28;20053;-74
2023/12/03 15:36:10;;;;;;;12.80;7.90;;;;;;;;;;6229041;28;20053;-75
2023/12/03 15:39:13;;;;;;;19.85;12.68;;;;;;;;;;6222694;28;20052;-75
2023/12/03 15:42:15;;;;;;;22.50;12.13;;;;;;;;;;6219590;28;20056;-74
2023/12/03 15:45:18;;;;;;;13.43;10.27;;;;;;;;;;6235608;28;20107;-75
2023/12/03 15:48:20;;;;;;;14.70;10.75;;;;;;;;;;6223975;28;20030;-74
2023/12/03 15:51:23;;;;;;;15.38;11.63;;;;;;;;;;6201434;28;20049;-75
2023/12/03 15:54:25;;;;;;;23.70;16.60;;;;;;;;;;6234375;28;20658;-74
2023/12/03 15:57:27;;;;;;;21.00;12.50;;;;;;;;;;6219332;28;20441;-74
2023/12/03 16:00:36;;;;;;;11.85;7.85;;;;;;;;;;6218300;28;20049;-74
2023/12/03 16:03:41;;;;;;;14.65;10.98;;;;;;;;;;6229364;28;20115;-74
2023/12/03 16:06:43;;;;;;;14.73;10.32;;;;;;;;;;6227489;28;20048;-74
2023/12/03 16:09:45;;;;;;;13.18;9.10;;;;;;;;;;6224638;28;20138;-75
2023/12/03 16:12:47;;;;;;;10.73;8.10;;;;;;;;;;6224506;28;20042;-74
2023/12/03 16:15:49;;;;;;;13.27;9.85;;;;;;;;;;6233990;28;20057;-74
2023/12/03 16:18:51;;;;;;;13.80;8.38;;;;;;;;;;6218681;28;20041;-75
2023/12/03 16:21:54;;;;;;;11.32;6.57;;;;;;;;;;6238842;28;20561;-74
2023/12/03 16:24:57;;;;;;;14.18;10.77;;;;;;;;;;6204751;28;20132;-75
2023/12/03 16:27:59;;;;;;;8.82;7.00;;;;;;;;;;6197821;28;20061;-74
2023/12/03 16:31:01;;;;;;;11.15;8.77;;;;;;;;;;6236155;28;20033;-74
2023/12/03 16:34:03;;;;;;;14.43;10.23;;;;;;;;;;6235505;28;20136;-75
2023/12/03 16:37:06;;;;;;;12.85;8.18;;;;;;;;;;6228345;28;20041;-75
2023/12/03 16:40:09;;;;;;;19.63;11.05;;;;;;;;;;6202055;28;20050;-76
2023/12/03 16:43:11;;;;;;;11.45;7.82;;;;;;;;;;6236896;28;20056;-75
2023/12/03 16:46:14;;;;;;;10.68;8.00;;;;;;;;;;6213171;28;20136;-75
2023/12/03 16:49:16;;;;;;;12.10;8.10;;;;;;;;;;6229274;28;20102;-77
2023/12/03 16:52:18;;;;;;;12.70;9.35;;;;;;;;;;6214797;28;20045;-75
2023/12/03 16:55:21;;;;;;;13.98;9.18;;;;;;;;;;6233818;28;20065;-74
2023/12/03 16:58:24;;;;;;;13.95;10.25;;;;;;;;;;6217343;28;20056;-76
2023/12/03 17:01:26;;;;;;;14.18;10.80;;;;;;;;;;6221802;28;20042;-75
2023/12/03 17:04:28;;;;;;;12.48;10.93;;;;;;;;;;6232952;28;20052;-75
2023/12/03 17:07:32;;;;;;;12.75;10.27;;;;;;;;;;6213226;28;20072;-76
2023/12/03 17:10:36;;;;;;;15.77;10.90;;;;;;;;;;6210032;28;20758;-74
2023/12/03 17:13:40;;;;;;;13.13;9.77;;;;;;;;;;6233184;28;20041;-73
2023/12/03 17:16:44;;;;;;;15.20;11.88;;;;;;;;;;6217181;28;20061;-75
2023/12/03 17:19:46;;;;;;;12.57;9.50;;;;;;;;;;6232014;28;20056;-75
2023/12/03 17:22:48;;;;;;;12.90;9.40;;;;;;;;;;6221287;28;20231;-75
2023/12/03 17:25:50;;;;;;;12.45;9.25;;;;;;;;;;6230429;28;20038;-75
2023/12/03 17:28:52;;;;;;;16.98;11.48;;;;;;;;;;6227225;28;20539;-74
2023/12/03 17:31:55;;;;;;;18.58;15.00;;;;;;;;;;6230078;28;20518;-71
2023/12/03 17:34:57;;;;;;;18.08;12.05;;;;;;;;;;6198959;28;21358;-74
2023/12/03 17:38:00;;;;;;;20.95;13.82;;;;;;;;;;6207517;28;20053;-73
2023/12/03 17:41:03;;;;;;;15.10;9.60;;;;;;;;;;6228515;28;20050;-74
2023/12/03 17:44:05;;;;;;;18.73;14.40;;;;;;;;;;6217107;28;20042;-74
2023/12/03 17:47:07;;;;;;;13.15;7.35;;;;;;;;;;6207682;28;20345;-72
2023/12/03 17:50:10;;;;;;;17.40;12.73;;;;;;;;;;6230508;28;20033;-71
2023/12/03 17:53:12;;;;;;;17.40;11.13;;;;;;;;;;6216669;28;20137;-73
2023/12/03 17:56:15;;;;;;;14.65;9.23;;;;;;;;;;6221641;28;20046;-74